»·PEaware :: AAY2307 KMFR-KRNO

AAY2307 :: KMFR-KRNO

FLIGHT INFORMATION

Flight Status: Arrived
Operator:
Allegiant Air
More flights by this operator :: More flights under this callsign
Pilot: Mitchell L. (19304)
Aircraft: MCDONNELL-DOUGLAS MD-88
(MD88)
More flights by this aircraft type
Origin: KMFR Rogue Valley Intl-Medford
United States
Destination: KRNO Reno/Tahoe Intl
United States
More flights between these airports :: More routes between these airports
Route: BRUTE7 LANKS LMT HARTT HARTT1
File this flight plan on PilotEdge
Remarks:
Altitude:
(Current/Filed)
25,000ft
Speed:
(Current/Filed)
450kts
Departed: 11-Jul-18 07:37 AM
Arrived: 11-Jul-18 08:24 AM
Distance/Time
Traveled:
218nm/0:46
Distance/Time
To Go:
Arrived

Flight Plot

Page will automatically refresh every two minutes.

Flight plan parsing failed; only flown route is shown


Map Options




Map Legend


Flown Route
Filed Route
Departure Airport
Arrival Airport
Navaid (VOR, NDB)
Fix

Horizontal Profiles

Position Reports

Time Latitude Longitude Heading Altitude Ground
Speed
11-Jul-18 07:06 42.369421 -122.873618 247 1340ft 0kts
11-Jul-18 07:07 42.369421 -122.873618 247 1340ft 0kts
11-Jul-18 07:08 42.369421 -122.873618 247 1340ft 0kts
11-Jul-18 07:09 42.369421 -122.873618 247 1340ft 0kts
11-Jul-18 07:10 42.369421 -122.873618 247 1339ft 0kts
11-Jul-18 07:11 42.369421 -122.873618 247 1339ft 0kts
11-Jul-18 07:12 42.369421 -122.873618 247 1339ft 0kts
11-Jul-18 07:13 42.369421 -122.873618 247 1339ft 0kts
11-Jul-18 07:14 42.369421 -122.873618 247 1339ft 0kts
11-Jul-18 07:15 42.369421 -122.873618 247 1339ft 0kts
11-Jul-18 07:16 42.369421 -122.873618 247 1339ft 0kts
11-Jul-18 07:17 42.369421 -122.873618 247 1339ft 0kts
11-Jul-18 07:18 42.369421 -122.873618 247 1339ft 0kts
11-Jul-18 07:19 42.369421 -122.873618 247 1339ft 0kts
11-Jul-18 07:20 42.369421 -122.873618 247 1339ft 0kts
11-Jul-18 07:21 42.369421 -122.873618 247 1339ft 0kts
11-Jul-18 07:22 42.369421 -122.873618 247 1339ft 0kts
11-Jul-18 07:23 42.369421 -122.873618 247 1339ft 0kts
11-Jul-18 07:24 42.369421 -122.873618 247 1339ft 0kts
11-Jul-18 07:25 42.369481 -122.873421 247 1339ft 2kts
11-Jul-18 07:26 42.369865 -122.873220 122 1339ft 2kts
11-Jul-18 07:27 42.369870 -122.873558 68 1339ft 0kts
11-Jul-18 07:28 42.369870 -122.873558 68 1339ft 0kts
11-Jul-18 07:29 42.369870 -122.873558 68 1339ft 0kts
11-Jul-18 07:30 42.369870 -122.873558 68 1339ft 0kts
11-Jul-18 07:31 42.369873 -122.873547 68 1339ft 0kts
11-Jul-18 07:32 42.370584 -122.872598 346 1339ft 7kts
11-Jul-18 07:33 42.373626 -122.874171 338 1339ft 16kts
11-Jul-18 07:34 42.379181 -122.877099 338 1339ft 26kts
11-Jul-18 07:35 42.385585 -122.880298 21 1339ft 0kts
11-Jul-18 07:36 42.385620 -122.880279 22 1339ft 1kts
11-Jul-18 07:37 42.385194 -122.878551 164 1339ft 11kts
11-Jul-18 07:38 42.382724 -122.877337 159 1339ft 50kts
11-Jul-18 07:39 42.344147 -122.857941 177 2456ft 199kts
11-Jul-18 07:40 42.331297 -122.924616 301 4228ft 269kts
11-Jul-18 07:41 42.403265 -122.931867 42 5992ft 303kts
11-Jul-18 07:42 42.409054 -122.824435 108 8074ft 301kts
11-Jul-18 07:43 42.382836 -122.713775 108 10728ft 328kts
11-Jul-18 07:44 42.354819 -122.595293 108 14055ft 337kts
11-Jul-18 07:45 42.326091 -122.473366 108 16842ft 349kts
11-Jul-18 07:46 42.296742 -122.348258 109 19153ft 365kts
11-Jul-18 07:47 42.265933 -122.216281 109 21136ft 382kts
11-Jul-18 07:48 42.233755 -122.077726 109 23082ft 393kts
11-Jul-18 07:49 42.200494 -121.933768 108 24435ft 415kts
11-Jul-18 07:50 42.165399 -121.780982 108 25193ft 434kts
11-Jul-18 07:51 42.115651 -121.633343 138 25198ft 439kts
11-Jul-18 07:52 42.019299 -121.533064 140 25202ft 441kts
11-Jul-18 07:53 41.929739 -121.421204 138 25202ft 441kts
11-Jul-18 07:54 41.848891 -121.318588 139 25200ft 441kts
11-Jul-18 07:55 41.759935 -121.205446 139 25201ft 441kts
11-Jul-18 07:56 41.671161 -121.092356 139 25207ft 441kts
11-Jul-18 07:57 41.584546 -120.981898 139 25210ft 440kts
11-Jul-18 07:58 41.496441 -120.869425 139 25211ft 439kts
11-Jul-18 07:59 41.408190 -120.756597 139 25211ft 440kts
11-Jul-18 08:00 41.320122 -120.643858 139 24841ft 439kts
11-Jul-18 08:01 41.233435 -120.532733 139 24218ft 430kts
11-Jul-18 08:02 41.147525 -120.422484 139 24212ft 431kts
11-Jul-18 08:03 41.062687 -120.313483 139 24207ft 427kts
11-Jul-18 08:04 40.979746 -120.206775 138 24206ft 413kts
11-Jul-18 08:05 40.899357 -120.103202 138 24191ft 404kts
11-Jul-18 08:06 40.820031 -120.014297 159 24188ft 405kts
11-Jul-18 08:07 40.711756 -119.980633 169 24174ft 403kts
11-Jul-18 08:08 40.604382 -119.946624 168 22545ft 388kts
11-Jul-18 08:09 40.503801 -119.914300 168 20672ft 369kts
11-Jul-18 08:10 40.407157 -119.883265 168 19046ft 349kts
11-Jul-18 08:11 40.313947 -119.853632 168 17515ft 344kts
11-Jul-18 08:12 40.222032 -119.824400 168 15979ft 337kts
11-Jul-18 08:13 40.132814 -119.796023 167 14492ft 329kts
11-Jul-18 08:14 40.045117 -119.768770 172 13075ft 321kts
11-Jul-18 08:15 39.961381 -119.767597 181 12213ft 279kts
11-Jul-18 08:16 39.893984 -119.768098 180 12036ft 264kts
11-Jul-18 08:17 39.826870 -119.768357 181 11218ft 263kts
11-Jul-18 08:18 39.756504 -119.768127 182 9784ft 228kts
11-Jul-18 08:19 39.698840 -119.768737 182 8989ft 179kts
11-Jul-18 08:20 39.657612 -119.768835 182 7767ft 175kts
11-Jul-18 08:21 39.615572 -119.768921 182 6815ft 150kts
11-Jul-18 08:22 39.578488 -119.769015 182 5534ft 130kts
11-Jul-18 08:23 39.545910 -119.769109 181 4836ft 123kts
11-Jul-18 08:24 39.515174 -119.769199 180 4555ft 126kts
11-Jul-18 08:25 39.493044 -119.769874 221 4421ft 5kts
11-Jul-18 08:26 39.492721 -119.770303 233 4421ft 5kts
11-Jul-18 08:27 39.493959 -119.771510 0 4421ft 14kts
11-Jul-18 08:28 39.500211 -119.771522 359 4421ft 26kts
11-Jul-18 08:29 39.503892 -119.772738 254 4421ft 10kts
11-Jul-18 08:30 39.504371 -119.773258 0 4421ft 2kts
11-Jul-18 08:31 39.504395 -119.773257 0 4421ft 0kts
11-Jul-18 08:32 39.504395 -119.773257 0 4421ft 0kts
11-Jul-18 08:33 39.504395 -119.773257 0 4421ft 0kts
11-Jul-18 08:34 39.595797 -119.768966 182 6127ft 138kts

Navigation Log

Ident Type
Flight plan parsing failed, navigation log unavailable